createdAt,value
2023-05-01T00:01:58.897Z,10.48
2023-05-01T00:04:26.378Z,11.77
2023-05-01T00:06:53.458Z,10.63
2023-05-01T00:09:20.260Z,9.98
2023-05-01T00:11:47.057Z,11.15
2023-05-01T00:14:13.843Z,11.60
2023-05-01T00:16:40.681Z,12.05
2023-05-01T00:19:08.273Z,10.48
2023-05-01T00:21:35.126Z,12.10
2023-05-01T00:24:01.818Z,11.68
2023-05-01T00:26:31.325Z,11.73
2023-05-01T00:28:58.440Z,14.23
2023-05-01T00:31:25.982Z,13.63
2023-05-01T00:33:53.205Z,13.35
2023-05-01T00:36:20.660Z,13.55
2023-05-01T00:38:47.355Z,14.73
2023-05-01T00:41:14.114Z,13.90
2023-05-01T00:43:41.105Z,12.07
2023-05-01T00:46:08.575Z,12.77
2023-05-01T00:48:36.031Z,14.13
2023-05-01T00:51:06.116Z,12.55
2023-05-01T00:53:34.195Z,12.88
2023-05-01T00:56:01.239Z,13.45
2023-05-01T00:58:29.220Z,12.88
2023-05-01T01:00:56.822Z,12.27
2023-05-01T01:03:23.601Z,11.00
2023-05-01T01:05:55.831Z,11.65
2023-05-01T01:08:33.572Z,12.40
2023-05-01T01:11:43.030Z,12.60
2023-05-01T01:14:19.900Z,11.20
2023-05-01T01:17:19.118Z,12.57
2023-05-01T01:20:14.987Z,13.32
2023-05-01T01:22:45.966Z,12.85
2023-05-01T01:25:47.900Z,12.57
2023-05-01T01:28:39.986Z,13.55
2023-05-01T01:31:14.235Z,13.40
2023-05-01T01:34:04.258Z,16.13
2023-05-01T01:36:56.275Z,12.38
2023-05-01T01:39:42.361Z,11.73
2023-05-01T01:42:14.863Z,12.35
2023-05-01T01:44:47.844Z,13.15
2023-05-01T01:47:16.610Z,11.85
2023-05-01T01:49:48.640Z,12.68
2023-05-01T01:52:17.793Z,14.48
2023-05-01T01:54:52.879Z,15.88
2023-05-01T01:57:22.060Z,13.48
2023-05-01T01:59:51.226Z,13.60
2023-05-01T02:02:29.486Z,15.40
2023-05-01T02:04:57.442Z,12.05
2023-05-01T02:07:25.487Z,12.57
2023-05-01T02:09:55.095Z,11.32
2023-05-01T02:12:26.901Z,12.32
2023-05-01T02:14:54.071Z,12.27
2023-05-01T02:17:51.366Z,12.00
2023-05-01T02:59:05.765Z,12.60
2023-05-01T03:01:32.464Z,12.35
2023-05-01T03:03:59.710Z,13.23
2023-05-01T03:06:28.960Z,12.93
2023-05-01T03:08:55.582Z,13.25
2023-05-01T03:11:22.319Z,13.02
2023-05-01T03:13:49.119Z,12.65
2023-05-01T03:16:15.843Z,12.98
2023-05-01T03:18:42.458Z,13.20
2023-05-01T03:21:09.280Z,13.55
2023-05-01T03:23:38.354Z,13.63
2023-05-01T03:26:04.992Z,13.10
2023-05-01T03:28:31.756Z,13.60
2023-05-01T03:30:58.444Z,13.45
2023-05-01T03:33:26.209Z,12.52
2023-05-01T03:36:03.166Z,11.77
2023-05-01T03:38:31.384Z,12.73
2023-05-01T03:41:10.201Z,13.02
2023-05-01T03:43:55.500Z,11.90
2023-05-01T03:46:31.639Z,12.95
2023-05-01T03:48:58.466Z,12.80
2023-05-01T03:51:25.701Z,11.35
2023-05-01T03:53:56.669Z,12.88
2023-05-01T03:56:25.787Z,13.60
2023-05-01T03:58:53.239Z,12.18
2023-05-01T04:01:19.934Z,12.00
2023-05-01T04:03:48.350Z,12.57
2023-05-01T04:06:17.277Z,12.32
2023-05-01T04:08:44.451Z,11.77
2023-05-01T04:11:11.342Z,12.90
2023-05-01T04:13:37.895Z,11.55
2023-05-01T04:16:05.094Z,9.45
2023-05-01T04:18:32.915Z,9.90
2023-05-01T04:20:59.541Z,11.82
2023-05-01T04:23:26.352Z,10.43
2023-05-01T04:25:56.540Z,10.55
2023-05-01T04:28:23.272Z,8.85
2023-05-01T04:30:50.235Z,8.00
2023-05-01T04:33:16.848Z,9.73
2023-05-01T04:35:43.680Z,9.57
2023-05-01T04:38:10.523Z,9.38
2023-05-01T04:40:38.385Z,8.15
2023-05-01T04:43:05.359Z,9.00
2023-05-01T04:45:32.569Z,9.30
2023-05-01T04:47:59.892Z,9.52
2023-05-01T04:50:26.819Z,8.48
2023-05-01T04:52:53.844Z,8.27
2023-05-01T04:55:20.638Z,8.00
2023-05-01T04:58:03.574Z,6.07
2023-05-01T05:00:30.789Z,6.20
2023-05-01T05:02:58.085Z,6.50
2023-05-01T05:05:26.187Z,3.13
2023-05-01T05:07:52.960Z,3.95
2023-05-01T05:10:35.016Z,3.95
2023-05-01T05:13:15.564Z,4.95
2023-05-01T05:15:43.009Z,3.78
2023-05-01T05:18:11.048Z,3.92
2023-05-01T05:20:39.670Z,4.85
2023-05-01T05:23:08.254Z,5.05
2023-05-01T05:25:35.266Z,4.25
2023-05-01T05:28:01.951Z,3.85
2023-05-01T05:30:28.614Z,3.28
2023-05-01T05:32:56.463Z,3.38
2023-05-01T05:35:23.192Z,2.80
2023-05-01T05:37:50.393Z,3.22
2023-05-01T05:40:17.461Z,3.03
2023-05-01T05:42:52.094Z,3.05
2023-05-01T05:45:19.927Z,3.65
2023-05-01T05:47:47.492Z,3.47
2023-05-01T05:50:14.276Z,3.92
2023-05-01T05:52:42.624Z,4.25
2023-05-01T05:55:09.510Z,3.75
2023-05-01T05:57:37.810Z,3.10
2023-05-01T06:00:07.795Z,3.15
2023-05-01T06:02:43.379Z,2.88
2023-05-01T06:05:10.690Z,2.70
2023-05-01T06:07:37.553Z,1.88
2023-05-01T06:10:05.352Z,2.08
2023-05-01T06:12:32.598Z,1.77
2023-05-01T06:15:00.877Z,2.47
2023-05-01T06:17:28.776Z,1.83
2023-05-01T06:19:56.087Z,1.75
2023-05-01T06:22:22.871Z,1.90
2023-05-01T06:25:00.665Z,1.67
2023-05-01T06:27:29.678Z,1.63
2023-05-01T06:29:56.555Z,1.35
2023-05-01T06:32:23.729Z,1.67
2023-05-01T06:34:50.419Z,1.38
2023-05-01T06:37:17.275Z,1.48
2023-05-01T06:39:43.929Z,1.42
2023-05-01T06:42:15.704Z,1.73
2023-05-01T06:44:43.256Z,1.42
2023-05-01T06:47:10.064Z,1.40
2023-05-01T06:49:36.988Z,1.23
2023-05-01T06:52:03.804Z,1.02
2023-05-01T06:54:30.466Z,1.52
2023-05-01T06:56:57.097Z,1.40
2023-05-01T06:59:25.150Z,1.15
2023-05-01T07:01:52.153Z,1.30
2023-05-01T07:04:18.826Z,1.63
2023-05-01T07:06:45.542Z,1.00
2023-05-01T07:09:13.813Z,1.20
2023-05-01T07:11:40.512Z,1.05
2023-05-01T07:14:07.131Z,1.15
2023-05-01T07:16:33.913Z,1.00
2023-05-01T07:19:00.589Z,1.00
2023-05-01T07:21:27.289Z,0.80
2023-05-01T07:23:53.854Z,0.98
2023-05-01T07:26:20.524Z,1.13
2023-05-01T07:28:47.098Z,1.05
2023-05-01T07:31:13.763Z,0.93
2023-05-01T07:33:41.888Z,1.20
2023-05-01T07:36:09.205Z,1.13
2023-05-01T07:38:35.794Z,1.10
2023-05-01T07:41:02.643Z,1.33
2023-05-01T07:43:29.633Z,1.10
2023-05-01T07:46:00.426Z,0.80
2023-05-01T07:48:28.496Z,1.15
2023-05-01T07:50:56.980Z,0.85
2023-05-01T07:53:23.658Z,1.33
2023-05-01T07:55:50.781Z,0.98
2023-05-01T07:58:17.701Z,1.08
2023-05-01T08:00:47.185Z,0.80
2023-05-01T08:03:14.210Z,1.38
2023-05-01T08:05:41.903Z,0.90
2023-05-01T08:08:09.544Z,1.33
2023-05-01T08:10:36.586Z,0.80
2023-05-01T08:13:03.173Z,0.90
2023-05-01T08:15:29.813Z,0.80
2023-05-01T08:17:57.972Z,0.75
2023-05-01T08:20:24.959Z,0.70
2023-05-01T08:22:51.894Z,0.80
2023-05-01T08:25:18.555Z,1.20
2023-05-01T08:27:45.531Z,1.10
2023-05-01T08:30:12.486Z,0.77
2023-05-01T08:32:39.111Z,0.80
2023-05-01T08:35:06.306Z,0.70
2023-05-01T08:37:33.078Z,0.90
2023-05-01T08:39:59.704Z,0.68
2023-05-01T08:42:27.685Z,0.90
2023-05-01T08:44:59.310Z,0.80
2023-05-01T08:47:27.513Z,1.05
2023-05-01T08:49:55.660Z,0.60
2023-05-01T08:52:23.773Z,0.85
2023-05-01T08:54:54.526Z,0.60
2023-05-01T08:57:21.818Z,0.45
2023-05-01T08:59:50.805Z,0.57
2023-05-01T09:02:18.143Z,0.77
2023-05-01T09:04:45.883Z,0.60
2023-05-01T09:07:12.838Z,1.02
2023-05-01T09:09:39.545Z,0.70
2023-05-01T09:12:20.947Z,0.60
2023-05-01T09:14:47.870Z,0.90
2023-05-01T09:17:15.396Z,0.75
2023-05-01T09:19:42.128Z,0.77
2023-05-01T09:22:09.634Z,0.70
2023-05-01T09:24:36.678Z,0.63
2023-05-01T09:27:03.437Z,0.80
2023-05-01T09:29:40.438Z,1.15
2023-05-01T09:32:21.759Z,0.65
2023-05-01T09:34:49.979Z,0.80
2023-05-01T09:37:29.102Z,0.60
2023-05-01T09:40:06.422Z,0.60
2023-05-01T09:42:36.068Z,0.77
2023-05-01T09:45:05.966Z,0.70
2023-05-01T09:47:34.176Z,1.00
2023-05-01T09:50:00.969Z,0.47
2023-05-01T09:52:29.045Z,0.88
2023-05-01T09:55:18.278Z,0.60
2023-05-01T09:57:46.299Z,0.80
2023-05-01T10:00:15.444Z,0.75
2023-05-01T10:02:46.911Z,1.00
2023-05-01T10:05:14.458Z,0.77
2023-05-01T10:07:57.337Z,0.65
2023-05-01T10:10:24.455Z,0.52
2023-05-01T10:12:52.467Z,0.50
2023-05-01T10:15:25.612Z,1.08
2023-05-01T10:17:56.043Z,0.98
2023-05-01T10:20:22.657Z,0.60
2023-05-01T10:22:50.511Z,0.70
2023-05-01T10:25:18.630Z,0.57
2023-05-01T10:27:45.371Z,0.80
2023-05-01T10:30:12.754Z,0.77
2023-05-01T10:32:42.306Z,0.88
2023-05-01T10:35:15.177Z,1.13
2023-05-01T10:37:51.604Z,0.60
2023-05-01T10:40:57.882Z,0.52
2023-05-01T10:43:29.206Z,0.95
2023-05-01T10:46:08.096Z,0.80
2023-05-01T10:48:37.759Z,0.50
2023-05-01T10:51:10.586Z,0.60
2023-05-01T10:53:40.760Z,0.73
2023-05-01T10:56:25.828Z,0.75
2023-05-01T10:58:52.422Z,0.95
2023-05-01T11:01:41.321Z,0.80
2023-05-01T11:04:28.006Z,0.90
2023-05-01T11:07:10.910Z,0.93
2023-05-01T11:09:43.098Z,0.70
2023-05-01T11:12:11.881Z,0.90
2023-05-01T11:14:54.130Z,0.80
2023-05-01T11:17:39.543Z,1.48
2023-05-01T11:20:10.097Z,0.93
2023-05-01T11:25:17.930Z,1.08
2023-05-01T11:27:53.042Z,1.25
2023-05-01T11:30:20.463Z,1.30
2023-05-01T11:32:48.935Z,0.88
2023-05-01T11:35:27.315Z,1.08
2023-05-01T11:37:57.335Z,0.98
2023-05-01T11:40:29.280Z,1.17
2023-05-01T11:43:06.067Z,1.38
2023-05-01T11:45:34.132Z,1.10
2023-05-01T11:48:04.661Z,0.93
2023-05-01T11:50:36.293Z,0.90
2023-05-01T11:53:04.946Z,1.08
2023-05-01T11:55:33.192Z,0.80
2023-05-01T11:58:00.454Z,1.00
2023-05-01T12:00:33.766Z,0.80
2023-05-01T12:03:02.779Z,0.82
2023-05-01T12:05:31.460Z,1.02
2023-05-01T12:08:18.675Z,0.85
2023-05-01T12:10:49.341Z,1.10
2023-05-01T12:13:17.106Z,1.00
2023-05-01T12:15:46.774Z,1.00
2023-05-01T12:18:15.476Z,1.25
2023-05-01T12:20:48.652Z,1.05
2023-05-01T12:23:16.449Z,1.17
2023-05-01T12:25:44.864Z,0.98
2023-05-01T12:28:20.320Z,0.90
2023-05-01T12:30:49.144Z,0.70
2023-05-01T12:33:15.809Z,1.00
2023-05-01T12:35:47.112Z,0.70
2023-05-01T12:38:19.863Z,0.70
2023-05-01T12:40:55.671Z,0.63
2023-05-01T12:43:33.543Z,0.57
2023-05-01T12:46:02.052Z,0.77
2023-05-01T12:48:30.053Z,0.60
2023-05-01T12:50:57.323Z,0.60
2023-05-01T12:53:26.362Z,0.77
2023-05-01T12:55:57.830Z,0.60
2023-05-01T12:58:35.324Z,0.63
2023-05-01T13:01:02.899Z,0.50
2023-05-01T13:03:30.506Z,0.70
2023-05-01T13:06:02.407Z,0.63
2023-05-01T13:08:33.672Z,0.55
2023-05-01T13:11:08.949Z,0.70
2023-05-01T13:13:35.955Z,0.40
2023-05-01T13:16:13.829Z,0.50
2023-05-01T13:18:46.852Z,0.50
2023-05-01T13:21:16.364Z,0.40
2023-05-01T13:23:53.169Z,0.40
2023-05-01T13:26:26.954Z,0.60
2023-05-01T13:28:53.671Z,0.30
2023-05-01T13:31:20.288Z,0.38
2023-05-01T13:33:52.062Z,0.30
2023-05-01T13:36:26.329Z,0.60
2023-05-01T13:38:56.435Z,0.60
2023-05-01T13:41:28.123Z,0.60
2023-05-01T13:43:56.511Z,0.40
2023-05-01T13:46:24.989Z,0.50
2023-05-01T13:48:52.142Z,0.77
2023-05-01T13:51:24.320Z,0.40
2023-05-01T13:53:53.751Z,0.50
2023-05-01T13:56:21.769Z,0.40
2023-05-01T13:58:50.840Z,0.38
2023-05-01T14:01:21.239Z,0.50
2023-05-01T14:03:49.028Z,0.38
2023-05-01T14:06:19.717Z,0.40
2023-05-01T14:08:48.809Z,0.43
2023-05-01T14:11:15.802Z,0.52
2023-05-01T14:13:46.647Z,0.40
2023-05-01T14:16:33.446Z,0.60
2023-05-01T14:19:00.130Z,0.30
2023-05-01T14:21:28.299Z,0.35
2023-05-01T14:23:57.026Z,0.35
2023-05-01T14:26:24.663Z,0.40
2023-05-01T14:28:51.347Z,0.55
2023-05-01T14:31:27.417Z,0.60
2023-05-01T14:33:59.793Z,0.60
2023-05-01T14:36:33.996Z,0.65
2023-05-01T14:39:02.517Z,0.45
2023-05-01T14:41:29.761Z,0.40
2023-05-01T14:43:56.647Z,0.50
2023-05-01T14:46:32.639Z,0.55
2023-05-01T14:49:00.990Z,0.57
2023-05-01T14:51:28.608Z,0.60
2023-05-01T14:53:55.500Z,0.50
2023-05-01T14:56:22.886Z,0.50
2023-05-01T14:58:49.788Z,0.40
2023-05-01T15:01:16.982Z,0.73
2023-05-01T15:03:43.850Z,0.60
2023-05-01T15:06:11.279Z,0.30
2023-05-01T15:08:38.278Z,0.47
2023-05-01T15:11:05.216Z,10.30
2023-05-01T15:13:31.805Z,0.80
2023-05-01T15:15:58.665Z,0.93
2023-05-01T15:18:25.360Z,0.60
2023-05-01T15:20:52.116Z,0.50
2023-05-01T15:23:18.849Z,0.52
2023-05-01T15:25:47.533Z,0.60
2023-05-01T15:28:14.216Z,0.40
2023-05-01T15:30:44.809Z,0.40
2023-05-01T15:35:38.561Z,0.50
2023-05-01T15:38:05.543Z,0.77
2023-05-01T15:40:33.446Z,0.50
2023-05-01T15:43:01.249Z,0.90
2023-05-01T15:45:27.968Z,0.50
2023-05-01T15:47:54.665Z,0.55
2023-05-01T15:50:22.159Z,0.82
2023-05-01T15:52:48.884Z,0.60
2023-05-01T15:55:15.935Z,0.57
2023-05-01T15:57:45.929Z,0.50
2023-05-01T16:02:42.623Z,0.50
2023-05-01T16:05:09.594Z,0.70
2023-05-01T16:07:36.464Z,0.80
2023-05-01T16:10:04.546Z,1.08
2023-05-01T16:12:31.468Z,0.77
2023-05-01T16:15:00.913Z,0.70
2023-05-01T16:17:27.656Z,0.82
2023-05-01T16:19:55.136Z,0.55
2023-05-01T16:22:21.838Z,0.90
2023-05-01T16:24:49.133Z,0.90
2023-05-01T16:27:18.117Z,0.90
2023-05-01T16:29:45.082Z,0.88
2023-05-01T16:32:13.581Z,0.90
2023-05-01T16:34:40.504Z,1.10
2023-05-01T16:37:07.493Z,1.45
2023-05-01T16:39:38.418Z,0.88
2023-05-01T16:42:05.199Z,1.10
2023-05-01T16:44:35.344Z,0.93
2023-05-01T16:47:03.491Z,1.30
2023-05-01T16:49:30.168Z,1.17
2023-05-01T16:51:58.466Z,0.90
2023-05-01T16:54:31.917Z,0.80
2023-05-01T16:56:59.147Z,1.00
2023-05-01T16:59:25.939Z,1.00
2023-05-01T17:01:52.907Z,1.08
2023-05-01T17:04:19.846Z,1.27
2023-05-01T17:06:46.519Z,1.30
2023-05-01T17:09:13.268Z,0.98
2023-05-01T17:11:56.409Z,0.77
2023-05-01T17:14:23.235Z,0.77
2023-05-01T17:16:50.475Z,0.90
2023-05-01T17:19:17.328Z,0.93
2023-05-01T17:21:43.992Z,0.80
2023-05-01T17:24:10.992Z,1.08
2023-05-01T17:26:37.647Z,1.60
2023-05-01T17:29:04.245Z,1.30
2023-05-01T17:31:30.880Z,1.35
2023-05-01T17:33:57.473Z,1.08
2023-05-01T17:36:24.032Z,1.10
2023-05-01T17:38:50.898Z,1.30
2023-05-01T17:41:17.525Z,1.45
2023-05-01T17:43:45.643Z,1.13
2023-05-01T17:46:14.114Z,1.40
2023-05-01T17:48:44.614Z,1.38
2023-05-01T17:51:14.074Z,1.27
2023-05-01T17:53:41.685Z,1.33
2023-05-01T17:56:09.013Z,1.33
2023-05-01T17:58:36.424Z,2.35
2023-05-01T18:01:04.621Z,2.20
2023-05-01T18:03:35.065Z,2.30
2023-05-01T18:06:02.614Z,6.35
2023-05-01T18:08:29.327Z,11.32
2023-05-01T18:10:56.018Z,7.13
2023-05-01T18:13:28.041Z,4.78
2023-05-01T18:15:55.961Z,2.67
2023-05-01T18:18:29.131Z,3.20
2023-05-01T18:20:57.267Z,3.53
2023-05-01T18:23:25.236Z,3.10
2023-05-01T18:25:52.048Z,4.40
2023-05-01T18:28:19.120Z,6.35
2023-05-01T18:30:46.210Z,3.00
2023-05-01T18:33:13.520Z,2.55
2023-05-01T18:35:42.554Z,4.78
2023-05-01T18:38:10.062Z,6.30
2023-05-01T18:40:37.571Z,5.82
2023-05-01T18:43:04.493Z,5.13
2023-05-01T18:45:31.361Z,5.43
2023-05-01T18:48:01.106Z,5.00
2023-05-01T18:50:28.607Z,4.93
2023-05-01T18:52:55.495Z,4.20
2023-05-01T18:55:22.209Z,4.63
2023-05-01T18:57:49.183Z,4.10
2023-05-01T19:00:18.705Z,4.38
2023-05-01T19:02:51.141Z,4.20
2023-05-01T19:05:18.234Z,4.30
2023-05-01T19:07:45.244Z,4.60
2023-05-01T19:10:12.204Z,4.03
2023-05-01T19:12:39.547Z,3.58
2023-05-01T19:15:06.810Z,3.13
2023-05-01T19:17:33.987Z,3.33
2023-05-01T19:20:01.336Z,2.70
2023-05-01T19:22:28.197Z,3.03
2023-05-01T19:24:54.717Z,2.40
2023-05-01T19:27:21.392Z,3.17
2023-05-01T19:29:48.112Z,2.92
2023-05-01T19:32:14.868Z,2.38
2023-05-01T19:34:41.943Z,2.60
2023-05-01T19:37:08.475Z,2.00
2023-05-01T19:39:35.551Z,2.22
2023-05-01T19:42:03.252Z,1.80
2023-05-01T19:44:30.878Z,1.98
2023-05-01T19:46:57.521Z,1.83
2023-05-01T19:49:24.970Z,1.65
2023-05-01T19:51:53.518Z,1.90
2023-05-01T19:54:22.262Z,1.55
2023-05-01T19:56:51.723Z,1.83
2023-05-01T19:59:19.773Z,1.50
2023-05-01T20:01:46.510Z,1.95
2023-05-01T20:04:13.345Z,1.52
2023-05-01T20:06:40.169Z,1.70
2023-05-01T20:09:07.311Z,1.70
2023-05-01T20:11:34.178Z,1.70
2023-05-01T20:14:02.192Z,1.50
2023-05-01T20:16:30.120Z,1.80
2023-05-01T20:18:56.754Z,1.80
2023-05-01T20:21:23.685Z,1.95
2023-05-01T20:23:51.280Z,2.20
2023-05-01T20:26:19.042Z,2.30
2023-05-01T20:28:46.785Z,2.00
2023-05-01T20:31:13.735Z,2.17
2023-05-01T20:33:40.475Z,2.30
2023-05-01T20:36:07.335Z,2.10
2023-05-01T20:38:40.398Z,2.38
2023-05-01T20:41:07.077Z,2.47
2023-05-01T20:43:33.728Z,2.90
2023-05-01T20:46:00.887Z,2.58
2023-05-01T20:48:27.613Z,2.85
2023-05-01T20:50:54.346Z,2.35
2023-05-01T20:53:21.096Z,2.38
2023-05-01T20:55:47.725Z,2.47
2023-05-01T20:58:14.334Z,2.53
2023-05-01T21:00:40.960Z,2.38
2023-05-01T21:03:09.258Z,2.30
2023-05-01T21:05:36.008Z,2.60
2023-05-01T21:08:03.656Z,2.75
2023-05-01T21:10:30.254Z,2.65
2023-05-01T21:12:57.770Z,3.03
2023-05-01T21:15:24.796Z,2.42
2023-05-01T21:17:51.562Z,3.13
2023-05-01T21:20:30.256Z,2.88
2023-05-01T21:22:56.895Z,3.00
2023-05-01T21:25:26.926Z,2.38
2023-05-01T21:27:54.146Z,2.33
2023-05-01T21:30:30.276Z,2.28
2023-05-01T21:32:58.297Z,2.35
2023-05-01T21:35:26.070Z,2.08
2023-05-01T21:37:52.710Z,2.38
2023-05-01T21:40:19.501Z,2.50
2023-05-01T21:42:46.619Z,2.60
2023-05-01T21:45:14.475Z,2.72
2023-05-01T21:47:43.336Z,2.72
2023-05-01T21:50:13.135Z,2.47
2023-05-01T21:52:40.966Z,2.40
2023-05-01T21:55:09.729Z,2.53
2023-05-01T21:57:37.673Z,2.03
2023-05-01T22:00:09.034Z,2.20
2023-05-01T22:02:46.561Z,2.60
2023-05-01T22:05:15.061Z,2.72
2023-05-01T22:07:42.856Z,2.38
2023-05-01T22:10:11.878Z,2.40
2023-05-01T22:12:39.783Z,2.63
2023-05-01T22:15:13.658Z,2.50
2023-05-01T22:17:40.978Z,2.30
2023-05-01T22:20:11.121Z,2.25
2023-05-01T22:22:39.226Z,2.22
2023-05-01T22:25:06.733Z,2.50
2023-05-01T22:27:33.832Z,2.35
2023-05-01T22:30:00.688Z,2.85
2023-05-01T22:32:28.211Z,2.47
2023-05-01T22:34:55.126Z,2.50
2023-05-01T22:37:21.842Z,2.83
2023-05-01T22:39:48.496Z,2.75
2023-05-01T22:42:15.080Z,2.33
2023-05-01T22:44:41.840Z,2.60
2023-05-01T22:47:08.461Z,2.60
2023-05-01T22:49:35.441Z,2.60
2023-05-01T22:52:02.714Z,2.58
2023-05-01T22:54:29.301Z,3.15
2023-05-01T22:56:56.265Z,2.85
2023-05-01T22:59:22.890Z,2.70
2023-05-01T23:01:49.541Z,2.85
2023-05-01T23:04:16.482Z,2.92
2023-05-01T23:06:44.225Z,2.70
2023-05-01T23:09:11.690Z,2.53
2023-05-01T23:11:40.277Z,2.65
2023-05-01T23:14:07.356Z,2.97
2023-05-01T23:16:44.502Z,3.03
2023-05-01T23:19:22.785Z,2.78
2023-05-01T23:21:50.955Z,2.83
2023-05-01T23:24:21.131Z,3.30
2023-05-01T23:26:47.760Z,3.05
2023-05-01T23:29:16.411Z,2.85
2023-05-01T23:31:46.651Z,2.80
2023-05-01T23:34:17.451Z,3.15
2023-05-01T23:39:11.881Z,3.30
2023-05-01T23:41:39.026Z,2.90
2023-05-01T23:44:05.944Z,3.20
2023-05-01T23:46:32.569Z,2.90
2023-05-01T23:48:59.574Z,3.20
2023-05-01T23:51:27.658Z,3.33
2023-05-01T23:53:54.372Z,2.90
2023-05-01T23:56:21.060Z,3.42
2023-05-01T23:58:47.733Z,3.60
